sensor_id;sensor_type;location;lat;lon;timestamp;pressure;altitude;pressure_sealevel;temperature;humidity
7660;BME280;3872;47.902;8.162;2023-02-18T00:01:08;92934.88;;;9.40;100.00
7660;BME280;3872;47.902;8.162;2023-02-18T00:03:34;92930.13;;;9.27;100.00
7660;BME280;3872;47.902;8.162;2023-02-18T00:06:09;92936.69;;;9.45;100.00
7660;BME280;3872;47.902;8.162;2023-02-18T00:08:37;92931.19;;;9.36;100.00
7660;BME280;3872;47.902;8.162;2023-02-18T00:11:04;92923.56;;;9.35;100.00
7660;BME280;3872;47.902;8.162;2023-02-18T00:13:31;92937.69;;;9.09;100.00
7660;BME280;3872;47.902;8.162;2023-02-18T00:16:00;92932.78;;;9.48;100.00
7660;BME280;3872;47.902;8.162;2023-02-18T00:18:26;92924.34;;;9.35;100.00
7660;BME280;3872;47.902;8.162;2023-02-18T00:20:53;92927.28;;;9.79;100.00
7660;BME280;3872;47.902;8.162;2023-02-18T00:23:19;92934.03;;;9.25;100.00
7660;BME280;3872;47.902;8.162;2023-02-18T00:25:47;92920.41;;;9.38;100.00
7660;BME280;3872;47.902;8.162;2023-02-18T00:28:13;92924.06;;;9.32;100.00
7660;BME280;3872;47.902;8.162;2023-02-18T00:30:40;92914.16;;;9.79;100.00
7660;BME280;3872;47.902;8.162;2023-02-18T00:33:07;92911.75;;;9.48;100.00
7660;BME280;3872;47.902;8.162;2023-02-18T00:35:34;92909.63;;;9.39;100.00
7660;BME280;3872;47.902;8.162;2023-02-18T00:38:00;92907.81;;;9.30;100.00
7660;BME280;3872;47.902;8.162;2023-02-18T00:40:27;92906.44;;;9.07;100.00
7660;BME280;3872;47.902;8.162;2023-02-18T00:42:55;92905.69;;;9.32;100.00
7660;BME280;3872;47.902;8.162;2023-02-18T00:45:21;92893.38;;;9.63;100.00
7660;BME280;3872;47.902;8.162;2023-02-18T00:47:48;92887.59;;;9.86;100.00
7660;BME280;3872;47.902;8.162;2023-02-18T00:50:14;92880.75;;;9.75;100.00
7660;BME280;3872;47.902;8.162;2023-02-18T00:52:41;92882.84;;;9.22;100.00
7660;BME280;3872;47.902;8.162;2023-02-18T00:55:07;92882.59;;;9.79;100.00
7660;BME280;3872;47.902;8.162;2023-02-18T00:57:34;92882.06;;;9.37;100.00
7660;BME280;3872;47.902;8.162;2023-02-18T01:00:02;92885.22;;;9.49;100.00
7660;BME280;3872;47.902;8.162;2023-02-18T01:02:29;92878.38;;;9.73;100.00
7660;BME280;3872;47.902;8.162;2023-02-18T01:04:57;92879.19;;;9.79;100.00
7660;BME280;3872;47.902;8.162;2023-02-18T01:07:23;92879.44;;;9.47;100.00
7660;BME280;3872;47.902;8.162;2023-02-18T01:09:50;92869.44;;;9.74;100.00
7660;BME280;3872;47.902;8.162;2023-02-18T01:12:16;92876.75;;;9.17;100.00
7660;BME280;3872;47.902;8.162;2023-02-18T01:14:43;92860.25;;;9.31;100.00
7660;BME280;3872;47.902;8.162;2023-02-18T01:17:11;92865.50;;;9.67;100.00
7660;BME280;3872;47.902;8.162;2023-02-18T01:19:38;92861.81;;;9.83;100.00
7660;BME280;3872;47.902;8.162;2023-02-18T01:22:05;92867.88;;;9.48;100.00
7660;BME280;3872;47.902;8.162;2023-02-18T01:24:33;92857.91;;;9.50;100.00
7660;BME280;3872;47.902;8.162;2023-02-18T01:27:00;92851.84;;;9.75;100.00
7660;BME280;3872;47.902;8.162;2023-02-18T01:29:26;92848.72;;;9.73;100.00
7660;BME280;3872;47.902;8.162;2023-02-18T01:31:54;92851.59;;;9.76;100.00
7660;BME280;3872;47.902;8.162;2023-02-18T01:34:21;92853.66;;;9.90;100.00
7660;BME280;3872;47.902;8.162;2023-02-18T01:36:49;92852.34;;;9.97;100.00
7660;BME280;3872;47.902;8.162;2023-02-18T01:39:16;92850.03;;;9.65;100.00
7660;BME280;3872;47.902;8.162;2023-02-18T01:41:42;92856.06;;;9.61;100.00
7660;BME280;3872;47.902;8.162;2023-02-18T01:44:15;92846.59;;;9.85;100.00
7660;BME280;3872;47.902;8.162;2023-02-18T01:46:44;92868.13;;;9.31;100.00
7660;BME280;3872;47.902;8.162;2023-02-18T01:49:14;92854.47;;;9.29;100.00
7660;BME280;3872;47.902;8.162;2023-02-18T01:51:47;92862.13;;;9.51;100.00
7660;BME280;3872;47.902;8.162;2023-02-18T01:54:18;92860.00;;;9.68;100.00
7660;BME280;3872;47.902;8.162;2023-02-18T01:56:49;92855.53;;;9.59;100.00
7660;BME280;3872;47.902;8.162;2023-02-18T01:59:19;92846.06;;;9.63;100.00
7660;BME280;3872;47.902;8.162;2023-02-18T02:01:47;92832.16;;;9.72;100.00
7660;BME280;3872;47.902;8.162;2023-02-18T02:04:14;92844.72;;;8.99;100.00
7660;BME280;3872;47.902;8.162;2023-02-18T02:06:41;92842.63;;;9.07;100.00
7660;BME280;3872;47.902;8.162;2023-02-18T02:09:11;92835.50;;;8.97;100.00
7660;BME280;3872;47.902;8.162;2023-02-18T02:15:20;92830.81;;;9.14;100.00
7660;BME280;3872;47.902;8.162;2023-02-18T02:18:02;92831.09;;;9.13;100.00
7660;BME280;3872;47.902;8.162;2023-02-18T02:20:57;92837.34;;;8.86;100.00
7660;BME280;3872;47.902;8.162;2023-02-18T02:27:02;92847.84;;;8.96;100.00
7660;BME280;3872;47.902;8.162;2023-02-18T02:32:56;92830.31;;;9.27;100.00
7660;BME280;3872;47.902;8.162;2023-02-18T02:35:31;92835.53;;;9.12;100.00
7660;BME280;3872;47.902;8.162;2023-02-18T02:38:06;92832.88;;;8.87;100.00
7660;BME280;3872;47.902;8.162;2023-02-18T02:40:41;92827.94;;;9.21;100.00
7660;BME280;3872;47.902;8.162;2023-02-18T02:43:16;92831.09;;;9.13;100.00
7660;BME280;3872;47.902;8.162;2023-02-18T02:45:53;92835.56;;;9.37;100.00
7660;BME280;3872;47.902;8.162;2023-02-18T02:48:37;92833.19;;;9.21;100.00
7660;BME280;3872;47.902;8.162;2023-02-18T02:51:11;92831.03;;;8.82;100.00
7660;BME280;3872;47.902;8.162;2023-02-18T02:53:41;92828.47;;;9.48;100.00
7660;BME280;3872;47.902;8.162;2023-02-18T02:56:12;92816.91;;;9.14;100.00
7660;BME280;3872;47.902;8.162;2023-02-18T02:58:40;92812.72;;;9.28;100.00
7660;BME280;3872;47.902;8.162;2023-02-18T03:01:21;92819.25;;;9.05;100.00
7660;BME280;3872;47.902;8.162;2023-02-18T03:04:05;92825.81;;;9.13;100.00
7660;BME280;3872;47.902;8.162;2023-02-18T03:06:48;92827.38;;;8.93;100.00
7660;BME280;3872;47.902;8.162;2023-02-18T03:09:27;92826.38;;;9.15;100.00
7660;BME280;3872;47.902;8.162;2023-02-18T03:12:05;92825.84;;;9.08;100.00
7660;BME280;3872;47.902;8.162;2023-02-18T03:14:41;92818.75;;;9.13;100.00
7660;BME280;3872;47.902;8.162;2023-02-18T03:17:13;92823.66;;;8.69;100.00
7660;BME280;3872;47.902;8.162;2023-02-18T03:19:46;92825.81;;;8.87;100.00
7660;BME280;3872;47.902;8.162;2023-02-18T03:22:20;92814.03;;;9.30;100.00
7660;BME280;3872;47.902;8.162;2023-02-18T03:24:51;92811.38;;;9.10;100.00
7660;BME280;3872;47.902;8.162;2023-02-18T03:27:22;92804.81;;;9.38;100.00
7660;BME280;3872;47.902;8.162;2023-02-18T03:29:55;92810.63;;;9.30;100.00
7660;BME280;3872;47.902;8.162;2023-02-18T03:32:24;92810.59;;;8.94;100.00
7660;BME280;3872;47.902;8.162;2023-02-18T03:34:56;92805.09;;;9.36;100.00
7660;BME280;3872;47.902;8.162;2023-02-18T03:37:28;92808.53;;;9.37;100.00
7660;BME280;3872;47.902;8.162;2023-02-18T03:39:56;92799.56;;;9.38;100.00
7660;BME280;3872;47.902;8.162;2023-02-18T03:42:27;92807.97;;;9.20;100.00
7660;BME280;3872;47.902;8.162;2023-02-18T03:44:54;92792.75;;;9.01;100.00
7660;BME280;3872;47.902;8.162;2023-02-18T03:47:22;92802.19;;;8.92;100.00
7660;BME280;3872;47.902;8.162;2023-02-18T03:49:49;92791.69;;;8.87;100.00
7660;BME280;3872;47.902;8.162;2023-02-18T03:52:16;92780.13;;;9.39;100.00
7660;BME280;3872;47.902;8.162;2023-02-18T03:54:44;92782.00;;;9.23;100.00
7660;BME280;3872;47.902;8.162;2023-02-18T03:57:11;92792.19;;;8.84;100.00
7660;BME280;3872;47.902;8.162;2023-02-18T03:59:37;92775.41;;;9.06;100.00
7660;BME280;3872;47.902;8.162;2023-02-18T04:02:04;92787.50;;;9.12;100.00
7660;BME280;3872;47.902;8.162;2023-02-18T04:04:31;92800.34;;;8.93;100.00
7660;BME280;3872;47.902;8.162;2023-02-18T04:06:58;92775.41;;;9.11;100.00
7660;BME280;3872;47.902;8.162;2023-02-18T04:09:24;92786.44;;;8.92;100.00
7660;BME280;3872;47.902;8.162;2023-02-18T04:11:52;92780.41;;;9.12;100.00
7660;BME280;3872;47.902;8.162;2023-02-18T04:14:19;92788.81;;;9.09;100.00
7660;BME280;3872;47.902;8.162;2023-02-18T04:16:45;92796.41;;;9.06;100.00
7660;BME280;3872;47.902;8.162;2023-02-18T04:19:12;92805.34;;;8.94;100.00
7660;BME280;3872;47.902;8.162;2023-02-18T04:21:38;92794.31;;;9.13;100.00
7660;BME280;3872;47.902;8.162;2023-02-18T04:24:05;92785.88;;;9.61;100.00
7660;BME280;3872;47.902;8.162;2023-02-18T04:26:31;92786.94;;;9.70;100.00
7660;BME280;3872;47.902;8.162;2023-02-18T04:28:59;92782.22;;;9.17;100.00
7660;BME280;3872;47.902;8.162;2023-02-18T04:31:26;92790.91;;;9.22;100.00
7660;BME280;3872;47.902;8.162;2023-02-18T04:33:52;92784.59;;;8.88;100.00
7660;BME280;3872;47.902;8.162;2023-02-18T04:36:19;92789.06;;;9.33;100.00
7660;BME280;3872;47.902;8.162;2023-02-18T04:38:46;92780.66;;;9.11;100.00
7660;BME280;3872;47.902;8.162;2023-02-18T04:41:12;92785.66;;;9.32;100.00
7660;BME280;3872;47.902;8.162;2023-02-18T04:43:39;92792.97;;;8.90;100.00
7660;BME280;3872;47.902;8.162;2023-02-18T04:46:06;92785.38;;;9.24;100.00
7660;BME280;3872;47.902;8.162;2023-02-18T04:48:33;92792.47;;;9.13;100.00
7660;BME280;3872;47.902;8.162;2023-02-18T04:51:00;92793.56;;;9.37;100.00
7660;BME280;3872;47.902;8.162;2023-02-18T04:53:27;92791.44;;;9.34;100.00
7660;BME280;3872;47.902;8.162;2023-02-18T04:55:53;92789.84;;;9.33;100.00
7660;BME280;3872;47.902;8.162;2023-02-18T04:58:20;92799.81;;;9.11;100.00
7660;BME280;3872;47.902;8.162;2023-02-18T05:00:47;92806.41;;;9.39;100.00
7660;BME280;3872;47.902;8.162;2023-02-18T05:03:15;92804.56;;;9.29;100.00
7660;BME280;3872;47.902;8.162;2023-02-18T05:05:41;92804.81;;;9.33;100.00
7660;BME280;3872;47.902;8.162;2023-02-18T05:08:08;92794.06;;;9.19;100.00
7660;BME280;3872;47.902;8.162;2023-02-18T05:10:36;92796.69;;;9.50;100.00
7660;BME280;3872;47.902;8.162;2023-02-18T05:13:03;92789.59;;;9.55;100.00
7660;BME280;3872;47.902;8.162;2023-02-18T05:15:30;92784.34;;;9.20;100.00
7660;BME280;3872;47.902;8.162;2023-02-18T05:17:56;92774.63;;;9.15;100.00
7660;BME280;3872;47.902;8.162;2023-02-18T05:20:24;92770.16;;;9.11;100.00
7660;BME280;3872;47.902;8.162;2023-02-18T05:22:50;92762.25;;;9.31;100.00
7660;BME280;3872;47.902;8.162;2023-02-18T05:25:17;92764.38;;;9.44;100.00
7660;BME280;3872;47.902;8.162;2023-02-18T05:27:44;92764.63;;;9.53;100.00
7660;BME280;3872;47.902;8.162;2023-02-18T05:30:11;92767.00;;;9.03;100.00
7660;BME280;3872;47.902;8.162;2023-02-18T05:32:37;92772.75;;;8.95;100.00
7660;BME280;3872;47.902;8.162;2023-02-18T05:35:05;92778.81;;;9.06;100.00
7660;BME280;3872;47.902;8.162;2023-02-18T05:37:33;92767.50;;;9.61;100.00
7660;BME280;3872;47.902;8.162;2023-02-18T05:39:59;92773.28;;;9.63;100.00
7660;BME280;3872;47.902;8.162;2023-02-18T05:42:26;92777.22;;;9.66;100.00
7660;BME280;3872;47.902;8.162;2023-02-18T05:44:52;92778.56;;;9.28;100.00
7660;BME280;3872;47.902;8.162;2023-02-18T05:47:19;92774.63;;;9.25;100.00
7660;BME280;3872;47.902;8.162;2023-02-18T05:49:45;92771.19;;;9.45;100.00
7660;BME280;3872;47.902;8.162;2023-02-18T05:52:12;92765.44;;;9.13;100.00
7660;BME280;3872;47.902;8.162;2023-02-18T05:54:40;92765.44;;;9.13;100.00
7660;BME280;3872;47.902;8.162;2023-02-18T05:57:06;92758.59;;;9.27;100.00
7660;BME280;3872;47.902;8.162;2023-02-18T05:59:33;92760.16;;;9.58;100.00
7660;BME280;3872;47.902;8.162;2023-02-18T06:01:59;92764.59;;;9.73;100.00
7660;BME280;3872;47.902;8.162;2023-02-18T06:04:26;92768.03;;;9.38;100.00
7660;BME280;3872;47.902;8.162;2023-02-18T06:06:52;92767.53;;;9.11;100.00
7660;BME280;3872;47.902;8.162;2023-02-18T06:09:19;92773.84;;;9.15;100.00
7660;BME280;3872;47.902;8.162;2023-02-18T06:11:47;92769.91;;;9.12;100.00
7660;BME280;3872;47.902;8.162;2023-02-18T06:14:13;92770.44;;;9.14;100.00
7660;BME280;3872;47.902;8.162;2023-02-18T06:16:40;92777.78;;;9.12;100.00
7660;BME280;3872;47.902;8.162;2023-02-18T06:19:07;92780.91;;;8.79;100.00
7660;BME280;3872;47.902;8.162;2023-02-18T06:21:33;92772.00;;;9.15;100.00
7660;BME280;3872;47.902;8.162;2023-02-18T06:24:00;92771.47;;;9.33;100.00
7660;BME280;3872;47.902;8.162;2023-02-18T06:26:26;92777.25;;;8.95;100.00
7660;BME280;3872;47.902;8.162;2023-02-18T06:28:54;92775.16;;;9.02;100.00
7660;BME280;3872;47.902;8.162;2023-02-18T06:31:21;92769.09;;;8.86;100.00
7660;BME280;3872;47.902;8.162;2023-02-18T06:33:47;92765.44;;;9.08;100.00
7660;BME280;3872;47.902;8.162;2023-02-18T06:36:14;92768.56;;;9.50;100.00
7660;BME280;3872;47.902;8.162;2023-02-18T06:38:42;92767.53;;;9.51;100.00
7660;BME280;3872;47.902;8.162;2023-02-18T06:41:10;92762.28;;;9.36;100.00
7660;BME280;3872;47.902;8.162;2023-02-18T06:43:37;92759.63;;;8.95;100.00
7660;BME280;3872;47.902;8.162;2023-02-18T06:46:05;92769.09;;;9.17;100.00
7660;BME280;3872;47.902;8.162;2023-02-18T06:48:32;92767.50;;;8.95;100.00
7660;BME280;3872;47.902;8.162;2023-02-18T06:50:59;92769.09;;;8.86;100.00
7660;BME280;3872;47.902;8.162;2023-02-18T06:53:25;92765.44;;;9.33;100.00
7660;BME280;3872;47.902;8.162;2023-02-18T06:55:51;92760.72;;;9.15;100.00
7660;BME280;3872;47.902;8.162;2023-02-18T06:58:18;92760.19;;;8.97;100.00
7660;BME280;3872;47.902;8.162;2023-02-18T07:00:45;92757.03;;;8.90;100.00
7660;BME280;3872;47.902;8.162;2023-02-18T07:03:13;92756.00;;;9.22;100.00
7660;BME280;3872;47.902;8.162;2023-02-18T07:05:40;92755.72;;;9.08;100.00
7660;BME280;3872;47.902;8.162;2023-02-18T07:08:07;92759.13;;;8.98;100.00
7660;BME280;3872;47.902;8.162;2023-02-18T07:10:34;92754.69;;;9.14;100.00
7660;BME280;3872;47.902;8.162;2023-02-18T07:13:00;92757.03;;;8.90;100.00
7660;BME280;3872;47.902;8.162;2023-02-18T07:15:27;92771.72;;;8.96;100.00
7660;BME280;3872;47.902;8.162;2023-02-18T07:17:54;92759.41;;;9.07;100.00
7660;BME280;3872;47.902;8.162;2023-02-18T07:20:23;92757.03;;;9.16;100.00
7660;BME280;3872;47.902;8.162;2023-02-18T07:22:50;92763.09;;;9.01;100.00
7660;BME280;3872;47.902;8.162;2023-02-18T07:25:19;92767.81;;;9.14;100.00
7660;BME280;3872;47.902;8.162;2023-02-18T07:27:46;92771.75;;;9.27;100.00
7660;BME280;3872;47.902;8.162;2023-02-18T07:30:13;92772.00;;;9.00;100.00
7660;BME280;3872;47.902;8.162;2023-02-18T07:32:40;92763.31;;;9.10;100.00
7660;BME280;3872;47.902;8.162;2023-02-18T07:35:07;92767.78;;;9.19;100.00
7660;BME280;3872;47.902;8.162;2023-02-18T07:37:35;92771.22;;;9.35;100.00
7660;BME280;3872;47.902;8.162;2023-02-18T07:40:01;92781.69;;;9.10;100.00
7660;BME280;3872;47.902;8.162;2023-02-18T07:42:28;92775.91;;;9.02;100.00
7660;BME280;3872;47.902;8.162;2023-02-18T07:44:55;92778.31;;;9.09;100.00
7660;BME280;3872;47.902;8.162;2023-02-18T07:47:21;92782.50;;;9.56;100.00
7660;BME280;3872;47.902;8.162;2023-02-18T07:49:48;92775.69;;;9.09;100.00
7660;BME280;3872;47.902;8.162;2023-02-18T07:52:14;92780.41;;;9.27;100.00
7660;BME280;3872;47.902;8.162;2023-02-18T07:54:46;92775.94;;;8.92;100.00
7660;BME280;3872;47.902;8.162;2023-02-18T07:57:12;92784.31;;;9.45;100.00
7660;BME280;3872;47.902;8.162;2023-02-18T07:59:39;92770.66;;;9.38;100.00
7660;BME280;3872;47.902;8.162;2023-02-18T08:02:05;92780.94;;;9.29;100.00
7660;BME280;3872;47.902;8.162;2023-02-18T08:04:32;92785.38;;;9.64;100.00
7660;BME280;3872;47.902;8.162;2023-02-18T08:06:59;92784.84;;;9.32;100.00
7660;BME280;3872;47.902;8.162;2023-02-18T08:09:26;92778.03;;;9.41;100.00
7660;BME280;3872;47.902;8.162;2023-02-18T08:11:53;92779.59;;;9.72;100.00
7660;BME280;3872;47.902;8.162;2023-02-18T08:14:20;92784.63;;;9.23;100.00
7660;BME280;3872;47.902;8.162;2023-02-18T08:16:46;92776.44;;;9.40;100.00
7660;BME280;3872;47.902;8.162;2023-02-18T08:19:13;92772.78;;;9.51;100.00
7660;BME280;3872;47.902;8.162;2023-02-18T08:21:39;92774.38;;;9.37;100.00
7660;BME280;3872;47.902;8.162;2023-02-18T08:24:06;92773.03;;;9.50;100.00
7660;BME280;3872;47.902;8.162;2023-02-18T08:26:33;92773.59;;;9.16;100.00
7660;BME280;3872;47.902;8.162;2023-02-18T08:29:01;92779.09;;;8.99;100.00
7660;BME280;3872;47.902;8.162;2023-02-18T08:31:30;92768.34;;;9.16;100.00
7660;BME280;3872;47.902;8.162;2023-02-18T08:33:58;92772.78;;;9.26;100.00
7660;BME280;3872;47.902;8.162;2023-02-18T08:36:26;92772.22;;;9.69;100.00
7660;BME280;3872;47.902;8.162;2023-02-18T08:38:53;92763.00;;;9.67;100.00
7660;BME280;3872;47.902;8.162;2023-02-18T08:41:19;92765.38;;;9.78;100.00
7660;BME280;3872;47.902;8.162;2023-02-18T08:43:46;92768.31;;;9.57;100.00
7660;BME280;3872;47.902;8.162;2023-02-18T08:46:15;92774.63;;;9.30;100.00
7660;BME280;3872;47.902;8.162;2023-02-18T08:48:41;92778.56;;;9.18;100.00
7660;BME280;3872;47.902;8.162;2023-02-18T08:51:13;92772.25;;;9.49;100.00
7660;BME280;3872;47.902;8.162;2023-02-18T08:53:40;92776.44;;;9.55;100.00
7660;BME280;3872;47.902;8.162;2023-02-18T08:56:07;92767.78;;;9.50;100.00
7660;BME280;3872;47.902;8.162;2023-02-18T08:58:39;92763.22;;;9.96;100.00
7660;BME280;3872;47.902;8.162;2023-02-18T09:01:08;92779.88;;;9.56;100.00
7660;BME280;3872;47.902;8.162;2023-02-18T09:03:37;92766.84;;;10.15;100.00
7660;BME280;3872;47.902;8.162;2023-02-18T09:06:04;92776.72;;;9.59;100.00
7660;BME280;3872;47.902;8.162;2023-02-18T09:08:30;92770.09;;;9.76;100.00
7660;BME280;3872;47.902;8.162;2023-02-18T09:10:58;92770.13;;;9.61;100.00
7660;BME280;3872;47.902;8.162;2023-02-18T09:13:25;92772.22;;;9.69;100.00
7660;BME280;3872;47.902;8.162;2023-02-18T09:15:56;92773.31;;;9.33;100.00
7660;BME280;3872;47.902;8.162;2023-02-18T09:18:23;92765.41;;;9.63;100.00
7660;BME280;3872;47.902;8.162;2023-02-18T09:20:54;92764.31;;;9.74;100.00
7660;BME280;3872;47.902;8.162;2023-02-18T09:23:21;92781.66;;;9.75;100.00
7660;BME280;3872;47.902;8.162;2023-02-18T09:25:48;92775.66;;;9.55;100.00
7660;BME280;3872;47.902;8.162;2023-02-18T09:28:14;92779.88;;;9.35;100.00
7660;BME280;3872;47.902;8.162;2023-02-18T09:30:41;92781.72;;;9.40;100.00
7660;BME280;3872;47.902;8.162;2023-02-18T09:33:07;92767.69;;;10.00;100.00
7660;BME280;3872;47.902;8.162;2023-02-18T09:35:38;92769.00;;;9.88;100.00
7660;BME280;3872;47.902;8.162;2023-02-18T09:38:06;92775.91;;;9.63;100.00
7660;BME280;3872;47.902;8.162;2023-02-18T09:40:34;92761.50;;;9.20;100.00
7660;BME280;3872;47.902;8.162;2023-02-18T09:43:02;92776.47;;;9.25;100.00
7660;BME280;3872;47.902;8.162;2023-02-18T09:45:29;92773.56;;;9.47;100.00
7660;BME280;3872;47.902;8.162;2023-02-18T09:47:55;92774.59;;;9.46;100.00
7660;BME280;3872;47.902;8.162;2023-02-18T09:50:24;92778.03;;;9.41;100.00
7660;BME280;3872;47.902;8.162;2023-02-18T09:52:51;92783.22;;;9.81;100.00
7660;BME280;3872;47.902;8.162;2023-02-18T09:55:23;92783.75;;;9.94;100.00
7660;BME280;3872;47.902;8.162;2023-02-18T09:57:52;92776.03;;;10.12;100.00
7660;BME280;3872;47.902;8.162;2023-02-18T10:00:22;92770.88;;;9.77;100.00
7660;BME280;3872;47.902;8.162;2023-02-18T10:02:55;92782.16;;;9.93;100.00
7660;BME280;3872;47.902;8.162;2023-02-18T10:05:23;92785.91;;;9.56;100.00
7660;BME280;3872;47.902;8.162;2023-02-18T10:07:53;92779.88;;;9.56;100.00
7660;BME280;3872;47.902;8.162;2023-02-18T10:10:31;92770.41;;;9.65;100.00
7660;BME280;3872;47.902;8.162;2023-02-18T10:12:59;92767.47;;;9.66;100.00
7660;BME280;3872;47.902;8.162;2023-02-18T10:15:28;92770.13;;;9.61;100.00
7660;BME280;3872;47.902;8.162;2023-02-18T10:17:56;92771.09;;;10.01;100.00
7660;BME280;3872;47.902;8.162;2023-02-18T10:20:25;92784.84;;;9.32;100.00
7660;BME280;3872;47.902;8.162;2023-02-18T10:22:54;92780.03;;;9.95;100.00
7660;BME280;3872;47.902;8.162;2023-02-18T10:25:25;92773.22;;;9.94;100.00
7660;BME280;3872;47.902;8.162;2023-02-18T10:27:52;92777.66;;;10.03;100.00
7660;BME280;3872;47.902;8.162;2023-02-18T10:30:22;92788.25;;;9.73;100.00
7660;BME280;3872;47.902;8.162;2023-02-18T10:32:52;92791.28;;;10.26;100.00
7660;BME280;3872;47.902;8.162;2023-02-18T10:35:23;92779.31;;;10.58;100.00
7660;BME280;3872;47.902;8.162;2023-02-18T10:37:59;92776.88;;;10.08;100.00
7660;BME280;3872;47.902;8.162;2023-02-18T10:40:34;92781.06;;;10.19;100.00
7660;BME280;3872;47.902;8.162;2023-02-18T10:43:13;92773.88;;;10.35;100.00
7660;BME280;3872;47.902;8.162;2023-02-18T10:45:48;92783.13;;;10.27;100.00
7660;BME280;3872;47.902;8.162;2023-02-18T10:48:37;92778.41;;;10.78;100.00
7660;BME280;3872;47.902;8.162;2023-02-18T10:51:14;92766.13;;;11.08;100.00
7660;BME280;3872;47.902;8.162;2023-02-18T10:53:43;92767.75;;;10.54;100.00
7660;BME280;3872;47.902;8.162;2023-02-18T10:56:31;92758.47;;;11.06;100.00
7660;BME280;3872;47.902;8.162;2023-02-18T10:59:01;92777.19;;;10.60;100.00
7660;BME280;3872;47.902;8.162;2023-02-18T11:01:30;92755.81;;;10.67;100.00
7660;BME280;3872;47.902;8.162;2023-02-18T11:04:06;92757.78;;;10.46;100.00
7660;BME280;3872;47.902;8.162;2023-02-18T11:06:40;92771.91;;;10.66;100.00
7660;BME280;3872;47.902;8.162;2023-02-18T11:09:23;92755.53;;;10.09;100.00
7660;BME280;3872;47.902;8.162;2023-02-18T11:11:59;92748.06;;;10.42;100.00
7660;BME280;3872;47.902;8.162;2023-02-18T11:14:38;92744.56;;;10.56;100.00
7660;BME280;3872;47.902;8.162;2023-02-18T11:17:15;92741.69;;;10.58;100.00
7660;BME280;3872;47.902;8.162;2023-02-18T11:19:42;92735.81;;;10.71;100.00
7660;BME280;3872;47.902;8.162;2023-02-18T11:22:14;92738.16;;;10.73;100.00
7660;BME280;3872;47.902;8.162;2023-02-18T11:24:41;92726.91;;;11.30;100.00
7660;BME280;3872;47.902;8.162;2023-02-18T11:27:19;92734.84;;;10.57;100.00
7660;BME280;3872;47.902;8.162;2023-02-18T11:29:50;92734.81;;;10.62;100.00
7660;BME280;3872;47.902;8.162;2023-02-18T11:32:17;92741.03;;;11.15;100.00
7660;BME280;3872;47.902;8.162;2023-02-18T11:34:44;92751.28;;;10.78;100.00
7660;BME280;3872;47.902;8.162;2023-02-18T11:37:15;92740.47;;;10.30;100.00
7660;BME280;3872;47.902;8.162;2023-02-18T11:39:44;92732.25;;;10.91;100.00
7660;BME280;3872;47.902;8.162;2023-02-18T11:42:14;92747.63;;;10.74;100.00
7660;BME280;3872;47.902;8.162;2023-02-18T11:44:48;92727.88;;;11.15;100.00
7660;BME280;3872;47.902;8.162;2023-02-18T11:47:23;92728.03;;;11.24;100.00
7660;BME280;3872;47.902;8.162;2023-02-18T11:50:09;92732.47;;;10.94;100.00
7660;BME280;3872;47.902;8.162;2023-02-18T11:52:41;92738.94;;;10.73;100.00
7660;BME280;3872;47.902;8.162;2023-02-18T11:55:14;92725.34;;;11.00;100.00
7660;BME280;3872;47.902;8.162;2023-02-18T11:57:45;92725.94;;;10.92;100.00
7660;BME280;3872;47.902;8.162;2023-02-18T12:00:15;92720.78;;;11.11;100.00
7660;BME280;3872;47.902;8.162;2023-02-18T12:02:46;92723.59;;;10.85;100.00
7660;BME280;3872;47.902;8.162;2023-02-18T12:05:15;92726.66;;;11.31;100.00
7660;BME280;3872;47.902;8.162;2023-02-18T12:07:46;92717.75;;;11.27;100.00
7660;BME280;3872;47.902;8.162;2023-02-18T12:10:20;92726.59;;;11.94;100.00
7660;BME280;3872;47.902;8.162;2023-02-18T12:12:52;92716.03;;;11.42;100.00
7660;BME280;3872;47.902;8.162;2023-02-18T12:15:24;92705.16;;;10.85;100.00
7660;BME280;3872;47.902;8.162;2023-02-18T12:18:08;92697.34;;;11.38;100.00
7660;BME280;3872;47.902;8.162;2023-02-18T12:20:53;92702.72;;;11.28;100.00
7660;BME280;3872;47.902;8.162;2023-02-18T12:23:29;92710.72;;;11.47;100.00
7660;BME280;3872;47.902;8.162;2023-02-18T12:26:06;92713.75;;;11.01;100.00
7660;BME280;3872;47.902;8.162;2023-02-18T12:28:49;92700.94;;;11.18;100.00
7660;BME280;3872;47.902;8.162;2023-02-18T12:31:58;92700.44;;;11.45;100.00
7660;BME280;3872;47.902;8.162;2023-02-18T12:34:45;92698.31;;;11.76;100.00
7660;BME280;3872;47.902;8.162;2023-02-18T12:37:31;92694.34;;;11.73;100.00
7660;BME280;3872;47.902;8.162;2023-02-18T12:40:07;92699.09;;;11.76;100.00
7660;BME280;3872;47.902;8.162;2023-02-18T12:42:51;92702.41;;;11.58;100.00
7660;BME280;3872;47.902;8.162;2023-02-18T12:45:38;92704.88;;;11.50;100.00
7660;BME280;3872;47.902;8.162;2023-02-18T12:48:28;92684.31;;;10.94;100.00
7660;BME280;3872;47.902;8.162;2023-02-18T12:51:10;92682.41;;;11.57;100.00
7660;BME280;3872;47.902;8.162;2023-02-18T12:53:51;92690.47;;;11.42;100.00
7660;BME280;3872;47.902;8.162;2023-02-18T12:56:34;92685.91;;;12.00;100.00
7660;BME280;3872;47.902;8.162;2023-02-18T12:59:08;92687.84;;;11.66;100.00
7660;BME280;3872;47.902;8.162;2023-02-18T13:01:42;92681.78;;;11.65;100.00
7660;BME280;3872;47.902;8.162;2023-02-18T13:04:20;92680.84;;;11.27;100.00
7660;BME280;3872;47.902;8.162;2023-02-18T13:07:11;92692.78;;;11.49;100.00
7660;BME280;3872;47.902;8.162;2023-02-18T13:09:52;92679.78;;;11.57;100.00
7660;BME280;3872;47.902;8.162;2023-02-18T13:12:27;92676.06;;;11.58;100.00
7660;BME280;3872;47.902;8.162;2023-02-18T13:15:01;92678.19;;;11.56;100.00
7660;BME280;3872;47.902;8.162;2023-02-18T13:17:33;92672.22;;;11.22;100.00
7660;BME280;3872;47.902;8.162;2023-02-18T13:20:04;92661.84;;;10.68;100.00
7660;BME280;3872;47.902;8.162;2023-02-18T13:22:32;92657.09;;;11.04;100.00
7660;BME280;3872;47.902;8.162;2023-02-18T13:24:59;92668.78;;;11.74;100.00
7660;BME280;3872;47.902;8.162;2023-02-18T13:27:29;92671.63;;;11.54;100.00
7660;BME280;3872;47.902;8.162;2023-02-18T13:30:15;92652.09;;;11.02;100.00
7660;BME280;3872;47.902;8.162;2023-02-18T13:32:51;92659.31;;;10.91;100.00
7660;BME280;3872;47.902;8.162;2023-02-18T13:35:26;92656.53;;;11.07;100.00
7660;BME280;3872;47.902;8.162;2023-02-18T13:38:06;92654.69;;;10.73;100.00
7660;BME280;3872;47.902;8.162;2023-02-18T13:40:38;92651.88;;;10.98;100.00
7660;BME280;3872;47.902;8.162;2023-02-18T13:43:29;92646.44;;;11.43;100.00
7660;BME280;3872;47.902;8.162;2023-02-18T13:46:07;92641.41;;;11.70;100.00